createdAt,value
2023-05-13T00:00:39.401Z,7.46
2023-05-13T00:03:12.645Z,7.49
2023-05-13T00:05:41.079Z,7.51
2023-05-13T00:08:09.073Z,7.49
2023-05-13T00:10:36.959Z,7.45
2023-05-13T00:13:05.023Z,7.41
2023-05-13T00:15:32.974Z,7.42
2023-05-13T00:18:00.870Z,7.46
2023-05-13T00:20:28.836Z,7.49
2023-05-13T00:22:56.787Z,7.52
2023-05-13T00:25:24.689Z,7.54
2023-05-13T00:27:52.672Z,7.52
2023-05-13T00:30:21.418Z,7.48
2023-05-13T00:32:49.656Z,7.44
2023-05-13T00:35:20.894Z,7.42
2023-05-13T00:37:48.939Z,7.40
2023-05-13T00:40:23.433Z,7.39
2023-05-13T00:42:51.740Z,7.41
2023-05-13T00:45:21.508Z,7.39
2023-05-13T00:47:49.764Z,7.36
2023-05-13T00:50:17.890Z,7.33
2023-05-13T00:52:49.679Z,7.36
2023-05-13T00:55:17.931Z,7.35
2023-05-13T00:57:46.153Z,7.34
2023-05-13T01:00:14.668Z,7.35
2023-05-13T01:03:08.180Z,7.37
2023-05-13T01:05:55.201Z,7.36
2023-05-13T01:08:47.341Z,7.36
2023-05-13T01:11:22.010Z,7.35
2023-05-13T01:13:58.185Z,7.33
2023-05-13T01:16:43.477Z,7.33
2023-05-13T01:19:44.512Z,7.33
2023-05-13T01:22:13.362Z,7.31
2023-05-13T01:24:42.625Z,7.31
2023-05-13T01:27:10.664Z,7.32
2023-05-13T01:29:38.919Z,7.32
2023-05-13T01:32:09.535Z,7.34
2023-05-13T01:34:39.644Z,7.33
2023-05-13T01:37:08.086Z,7.33
2023-05-13T01:39:38.449Z,7.34
2023-05-13T01:42:09.479Z,7.36
2023-05-13T01:44:37.552Z,7.38
2023-05-13T01:47:06.326Z,7.40
2023-05-13T01:49:34.347Z,7.43
2023-05-13T01:52:02.296Z,7.46
2023-05-13T01:54:30.931Z,7.46
2023-05-13T01:57:04.526Z,7.46
2023-05-13T01:59:32.503Z,7.48
2023-05-13T02:02:00.721Z,7.48
2023-05-13T02:04:28.732Z,7.46
2023-05-13T02:06:57.116Z,7.44
2023-05-13T02:09:25.856Z,7.43
2023-05-13T02:11:53.863Z,7.43
2023-05-13T02:14:22.519Z,7.42
2023-05-13T02:16:50.845Z,7.37
2023-05-13T02:19:20.001Z,7.30
2023-05-13T02:21:49.823Z,7.26
2023-05-13T02:24:17.919Z,7.24
2023-05-13T02:26:45.877Z,7.24
2023-05-13T02:29:14.373Z,7.27
2023-05-13T02:31:43.541Z,7.28
2023-05-13T02:34:11.715Z,7.28
2023-05-13T02:36:39.717Z,7.28
2023-05-13T02:39:08.371Z,7.32
2023-05-13T02:41:37.734Z,7.35
2023-05-13T02:44:06.163Z,7.40
2023-05-13T02:46:35.068Z,7.46
2023-05-13T02:49:03.610Z,7.48
2023-05-13T02:51:32.417Z,7.45
2023-05-13T02:54:00.619Z,7.42
2023-05-13T02:56:28.657Z,7.42
2023-05-13T02:58:57.051Z,7.42
2023-05-13T03:01:26.782Z,7.42
2023-05-13T03:03:55.070Z,7.42
2023-05-13T03:06:23.081Z,7.42
2023-05-13T03:08:51.540Z,7.42
2023-05-13T03:11:19.498Z,7.42
2023-05-13T03:13:47.417Z,7.44
2023-05-13T03:16:15.577Z,7.44
2023-05-13T03:18:43.775Z,7.43
2023-05-13T03:21:11.960Z,7.44
2023-05-13T03:23:40.388Z,7.42
2023-05-13T03:26:08.423Z,7.41
2023-05-13T03:28:36.432Z,7.42
2023-05-13T03:31:04.723Z,7.41
2023-05-13T03:33:34.813Z,7.39
2023-05-13T03:36:02.960Z,7.41
2023-05-13T03:38:32.714Z,7.46
2023-05-13T03:41:00.794Z,7.52
2023-05-13T03:43:29.657Z,7.57
2023-05-13T03:46:01.008Z,7.59
2023-05-13T03:48:29.102Z,7.61
2023-05-13T03:50:58.315Z,7.67
2023-05-13T03:53:26.426Z,7.72
2023-05-13T03:55:55.135Z,7.73
2023-05-13T03:58:23.155Z,7.75
2023-05-13T04:00:51.116Z,7.78
2023-05-13T04:03:19.593Z,7.79
2023-05-13T04:05:48.711Z,7.78
2023-05-13T04:08:16.720Z,7.76
2023-05-13T04:10:45.302Z,7.75
2023-05-13T04:13:13.324Z,7.80
2023-05-13T04:15:41.628Z,7.88
2023-05-13T04:18:09.959Z,7.94
2023-05-13T04:20:39.600Z,7.95
2023-05-13T04:23:07.812Z,7.98
2023-05-13T04:25:37.548Z,8.01
2023-05-13T04:28:05.741Z,8.02
2023-05-13T04:30:37.399Z,8.08
2023-05-13T04:33:06.693Z,8.13
2023-05-13T04:35:36.001Z,8.17
2023-05-13T04:38:06.039Z,8.19
2023-05-13T04:40:34.103Z,8.25
2023-05-13T04:43:07.746Z,8.30
2023-05-13T04:45:43.035Z,8.35
2023-05-13T04:48:13.696Z,8.39
2023-05-13T04:50:47.341Z,8.43
2023-05-13T04:53:16.712Z,8.43
2023-05-13T04:55:50.757Z,8.43
2023-05-13T04:58:18.748Z,8.47
2023-05-13T05:00:47.219Z,8.49
2023-05-13T05:03:16.378Z,8.55
2023-05-13T05:05:44.550Z,8.62
2023-05-13T05:08:14.421Z,8.69
2023-05-13T05:10:42.659Z,8.77
2023-05-13T05:13:11.319Z,8.86
2023-05-13T05:15:40.035Z,8.94
2023-05-13T05:18:10.214Z,8.98
2023-05-13T05:20:40.137Z,9.04
2023-05-13T05:23:12.683Z,9.13
2023-05-13T05:25:40.930Z,9.17
2023-05-13T05:28:10.040Z,9.19
2023-05-13T05:30:42.016Z,9.23
2023-05-13T05:33:22.513Z,9.28
2023-05-13T05:35:51.565Z,9.33
2023-05-13T05:38:26.094Z,9.37
2023-05-13T05:40:56.608Z,9.45
2023-05-13T05:43:25.004Z,9.47
2023-05-13T05:45:53.782Z,9.47
2023-05-13T05:48:23.402Z,9.47
2023-05-13T05:50:51.999Z,9.48
2023-05-13T05:53:28.071Z,9.49
2023-05-13T05:55:56.336Z,9.56
2023-05-13T05:58:27.281Z,9.59
2023-05-13T06:00:57.354Z,9.61
2023-05-13T06:03:27.752Z,9.62
2023-05-13T06:05:56.075Z,9.63
2023-05-13T06:08:30.373Z,9.66
2023-05-13T06:10:59.096Z,9.77
2023-05-13T06:13:27.333Z,9.84
2023-05-13T06:15:56.813Z,9.86
2023-05-13T06:18:26.729Z,9.90
2023-05-13T06:20:55.437Z,9.99
2023-05-13T06:23:23.503Z,10.10
2023-05-13T06:25:53.097Z,10.21
2023-05-13T06:28:21.463Z,10.27
2023-05-13T06:30:52.052Z,10.33
2023-05-13T06:33:20.220Z,10.42
2023-05-13T06:35:49.992Z,10.53
2023-05-13T06:38:20.490Z,10.58
2023-05-13T06:40:49.151Z,10.64
2023-05-13T06:43:18.308Z,10.65
2023-05-13T06:45:54.257Z,10.68
2023-05-13T06:48:23.166Z,10.71
2023-05-13T06:50:51.564Z,10.73
2023-05-13T06:53:19.839Z,10.83
2023-05-13T06:55:48.008Z,10.88
2023-05-13T06:58:16.280Z,10.93
2023-05-13T07:00:47.141Z,11.00
2023-05-13T07:03:15.483Z,11.03
2023-05-13T07:05:44.745Z,11.09
2023-05-13T07:08:19.085Z,11.15
2023-05-13T07:10:47.316Z,11.15
2023-05-13T07:13:15.817Z,11.14
2023-05-13T07:15:44.344Z,11.13
2023-05-13T07:18:12.466Z,11.08
2023-05-13T07:20:40.883Z,11.02
2023-05-13T07:23:09.230Z,11.00
2023-05-13T07:25:37.399Z,11.01
2023-05-13T07:28:05.523Z,10.96
2023-05-13T07:30:33.650Z,10.88
2023-05-13T07:33:02.183Z,10.85
2023-05-13T07:35:31.031Z,10.87
2023-05-13T07:37:59.256Z,10.92
2023-05-13T07:40:27.110Z,10.93
2023-05-13T07:42:55.188Z,10.96
2023-05-13T07:45:23.713Z,10.99
2023-05-13T07:47:51.956Z,11.07
2023-05-13T07:50:20.031Z,11.17
2023-05-13T07:52:52.116Z,11.27
2023-05-13T07:55:20.655Z,11.29
2023-05-13T07:57:49.526Z,11.27
2023-05-13T08:00:17.996Z,11.26
2023-05-13T08:02:46.329Z,11.21
2023-05-13T08:05:14.519Z,11.15
2023-05-13T08:07:42.627Z,11.11
2023-05-13T08:10:10.795Z,11.13
2023-05-13T08:12:40.567Z,11.18
2023-05-13T08:15:08.957Z,11.24
2023-05-13T08:17:37.239Z,11.31
2023-05-13T08:20:06.031Z,11.43
2023-05-13T08:22:34.217Z,11.45
2023-05-13T08:25:03.634Z,11.49
2023-05-13T08:27:31.792Z,11.52
2023-05-13T08:29:59.892Z,11.59
2023-05-13T08:32:28.008Z,11.60
2023-05-13T08:34:56.394Z,11.54
2023-05-13T08:37:24.327Z,11.52
2023-05-13T08:39:52.359Z,11.57
2023-05-13T08:42:23.212Z,11.63
2023-05-13T08:44:53.190Z,11.76
2023-05-13T08:47:58.576Z,11.89
2023-05-13T08:50:28.627Z,12.03
2023-05-13T08:52:59.190Z,12.19
2023-05-13T08:55:27.614Z,12.29
2023-05-13T08:57:56.241Z,12.37
2023-05-13T09:00:24.718Z,12.44
2023-05-13T09:02:52.865Z,12.54
2023-05-13T09:05:22.364Z,12.63
2023-05-13T09:07:51.327Z,12.81
2023-05-13T09:10:21.291Z,12.93
2023-05-13T09:12:50.889Z,13.01
2023-05-13T09:15:20.800Z,13.12
2023-05-13T09:17:53.447Z,13.19
2023-05-13T09:20:25.521Z,13.16
2023-05-13T09:22:53.691Z,13.20
2023-05-13T09:25:27.171Z,13.23
2023-05-13T09:28:00.857Z,13.20
2023-05-13T09:30:33.956Z,13.17
2023-05-13T09:33:16.740Z,13.24
2023-05-13T09:35:53.722Z,13.31
2023-05-13T09:38:26.247Z,13.34
2023-05-13T09:40:59.126Z,13.42
2023-05-13T09:43:32.667Z,13.52
2023-05-13T09:46:05.657Z,13.57
2023-05-13T09:48:35.070Z,13.60
2023-05-13T09:51:03.729Z,13.70
2023-05-13T09:53:31.867Z,13.80
2023-05-13T09:56:01.845Z,13.94
2023-05-13T09:58:31.211Z,14.05
2023-05-13T10:01:00.870Z,14.11
2023-05-13T10:03:30.135Z,14.19
2023-05-13T10:06:02.308Z,14.32
2023-05-13T10:08:31.737Z,14.44
2023-05-13T10:11:00.082Z,14.46
2023-05-13T10:13:31.876Z,14.52
2023-05-13T10:16:00.388Z,14.51
2023-05-13T10:18:29.482Z,14.50
2023-05-13T10:20:57.803Z,14.51
2023-05-13T10:23:28.649Z,14.55
2023-05-13T10:25:59.238Z,14.60
2023-05-13T10:28:28.574Z,14.70
2023-05-13T10:30:57.291Z,14.78
2023-05-13T10:33:27.448Z,14.80
2023-05-13T10:36:01.880Z,14.76
2023-05-13T10:39:02.788Z,14.76
2023-05-13T10:42:00.200Z,14.80
2023-05-13T10:44:28.946Z,14.89
2023-05-13T10:46:57.764Z,15.00
2023-05-13T10:49:36.968Z,15.02
2023-05-13T10:52:12.759Z,14.99
2023-05-13T10:54:44.418Z,15.04
2023-05-13T10:57:13.968Z,14.91
2023-05-13T11:00:17.058Z,14.82
2023-05-13T11:02:45.607Z,14.86
2023-05-13T11:05:21.818Z,14.92
2023-05-13T11:07:58.365Z,14.88
2023-05-13T11:10:30.682Z,14.86
2023-05-13T11:13:14.168Z,14.93
2023-05-13T11:15:51.255Z,15.01
2023-05-13T11:18:21.375Z,15.00
2023-05-13T11:20:54.322Z,14.79
2023-05-13T11:23:22.684Z,14.63
2023-05-13T11:26:16.530Z,14.54
2023-05-13T11:28:58.492Z,14.54
2023-05-13T11:31:29.287Z,14.61
2023-05-13T11:34:15.183Z,14.63
2023-05-13T11:37:04.690Z,14.58
2023-05-13T11:39:33.315Z,14.47
2023-05-13T11:42:06.874Z,14.33
2023-05-13T11:44:36.136Z,14.27
2023-05-13T11:47:06.272Z,14.27
2023-05-13T11:49:37.721Z,14.24
2023-05-13T11:52:07.383Z,14.21
2023-05-13T11:54:53.976Z,14.21
2023-05-13T11:57:35.052Z,14.21
2023-05-13T12:00:05.281Z,14.28
2023-05-13T12:02:38.145Z,14.37
2023-05-13T12:05:09.037Z,14.48
2023-05-13T12:07:39.808Z,14.65
2023-05-13T12:10:08.938Z,14.82
2023-05-13T12:12:43.363Z,14.95
2023-05-13T12:15:18.202Z,14.99
2023-05-13T12:17:49.992Z,14.97
2023-05-13T12:20:24.758Z,14.96
2023-05-13T12:22:57.215Z,14.95
2023-05-13T12:25:44.180Z,14.99
2023-05-13T12:28:23.709Z,15.17
2023-05-13T12:30:59.399Z,15.35
2023-05-13T12:33:30.286Z,15.46
2023-05-13T12:36:20.764Z,15.48
2023-05-13T12:39:11.675Z,15.60
2023-05-13T12:41:42.472Z,15.73
2023-05-13T12:44:17.253Z,15.84
2023-05-13T12:46:59.613Z,15.94
2023-05-13T12:49:28.256Z,16.17
2023-05-13T12:51:57.297Z,16.32
2023-05-13T12:54:25.578Z,16.33
2023-05-13T12:56:54.000Z,16.36
2023-05-13T12:59:22.851Z,16.42
2023-05-13T13:01:51.386Z,16.44
2023-05-13T13:04:20.104Z,16.55
2023-05-13T13:06:48.599Z,16.79
2023-05-13T13:09:16.928Z,16.86
2023-05-13T13:11:45.228Z,16.86
2023-05-13T13:14:13.776Z,16.71
2023-05-13T13:16:42.568Z,16.53
2023-05-13T13:19:10.853Z,16.54
2023-05-13T13:21:39.505Z,16.60
2023-05-13T13:24:08.098Z,16.65
2023-05-13T13:26:36.180Z,16.70
2023-05-13T13:29:04.533Z,16.64
2023-05-13T13:31:32.753Z,16.47
2023-05-13T13:34:05.230Z,16.33
2023-05-13T13:36:33.285Z,16.33
2023-05-13T13:39:01.606Z,16.54
2023-05-13T13:41:29.808Z,16.74
2023-05-13T13:43:58.034Z,16.85
2023-05-13T13:46:26.256Z,16.97
2023-05-13T13:48:54.563Z,16.99
2023-05-13T13:51:22.903Z,16.91
2023-05-13T13:53:51.131Z,16.80
2023-05-13T13:56:20.900Z,16.81
2023-05-13T13:58:49.926Z,16.94
2023-05-13T14:01:20.408Z,17.16
2023-05-13T14:03:50.540Z,17.28
2023-05-13T14:06:19.204Z,17.41
2023-05-13T14:08:47.819Z,17.41
2023-05-13T14:11:17.073Z,17.29
2023-05-13T14:13:45.689Z,17.18
2023-05-13T14:16:14.308Z,17.17
2023-05-13T14:18:44.480Z,17.29
2023-05-13T14:21:12.677Z,17.40
2023-05-13T14:23:44.996Z,17.30
2023-05-13T14:26:18.454Z,17.16
2023-05-13T14:28:47.451Z,17.08
2023-05-13T14:31:16.475Z,17.06
2023-05-13T14:33:45.178Z,17.04
2023-05-13T14:36:16.428Z,16.81
2023-05-13T14:38:44.917Z,16.62
2023-05-13T14:41:20.016Z,16.46
2023-05-13T14:43:49.156Z,16.26
2023-05-13T14:46:17.909Z,16.11
2023-05-13T14:48:46.189Z,16.16
2023-05-13T14:51:14.253Z,16.23
2023-05-13T14:53:43.514Z,16.22
2023-05-13T14:56:11.842Z,16.24
2023-05-13T14:58:40.136Z,16.24
2023-05-13T15:01:08.667Z,16.19
2023-05-13T15:03:36.946Z,16.13
2023-05-13T15:06:05.586Z,16.03
2023-05-13T15:08:34.213Z,15.95
2023-05-13T15:11:02.572Z,15.90
2023-05-13T15:13:35.608Z,15.88
2023-05-13T15:16:04.778Z,15.88
2023-05-13T15:18:33.184Z,15.86
2023-05-13T15:21:01.641Z,15.82
2023-05-13T15:23:29.822Z,15.79
2023-05-13T15:25:58.293Z,15.75
2023-05-13T15:28:26.568Z,15.68
2023-05-13T15:30:55.469Z,15.62
2023-05-13T15:33:23.500Z,15.62
2023-05-13T15:35:52.821Z,15.68
2023-05-13T15:38:21.847Z,15.74
2023-05-13T15:40:50.640Z,15.79
2023-05-13T15:43:18.941Z,15.80
2023-05-13T15:45:47.482Z,15.82
2023-05-13T15:48:17.187Z,15.85
2023-05-13T15:50:46.079Z,15.85
2023-05-13T15:53:14.535Z,15.79
2023-05-13T15:55:43.121Z,15.75
2023-05-13T15:58:11.569Z,15.72
2023-05-13T16:00:40.203Z,15.69
2023-05-13T16:03:08.838Z,15.69
2023-05-13T16:05:38.728Z,15.72
2023-05-13T16:08:07.125Z,15.71
2023-05-13T16:10:35.909Z,15.71
2023-05-13T16:13:04.739Z,15.76
2023-05-13T16:15:33.162Z,15.81
2023-05-13T16:18:01.634Z,15.85
2023-05-13T16:20:29.698Z,15.87
2023-05-13T16:22:58.619Z,15.88
2023-05-13T16:25:27.509Z,15.84
2023-05-13T16:27:57.093Z,15.82
2023-05-13T16:30:25.709Z,15.76
2023-05-13T16:32:54.759Z,15.72
2023-05-13T16:35:23.002Z,15.69
2023-05-13T16:37:51.618Z,15.65
2023-05-13T16:40:19.933Z,15.62
2023-05-13T16:42:48.260Z,15.60
2023-05-13T16:45:16.820Z,15.59
2023-05-13T16:47:45.008Z,15.56
2023-05-13T16:50:13.774Z,15.53
2023-05-13T16:52:42.463Z,15.48
2023-05-13T16:55:10.655Z,15.45
2023-05-13T16:57:38.825Z,15.40
2023-05-13T17:00:07.476Z,15.37
2023-05-13T17:02:36.080Z,15.33
2023-05-13T17:05:04.933Z,15.27
2023-05-13T17:07:33.205Z,15.27
2023-05-13T17:10:01.545Z,15.23
2023-05-13T17:12:29.742Z,15.21
2023-05-13T17:14:58.340Z,15.17
2023-05-13T17:17:26.946Z,15.13
2023-05-13T17:19:55.601Z,15.10
2023-05-13T17:22:23.838Z,15.06
2023-05-13T17:24:52.023Z,15.03
2023-05-13T17:27:21.630Z,14.99
2023-05-13T17:29:50.066Z,14.93
2023-05-13T17:32:19.924Z,14.88
2023-05-13T17:34:49.809Z,14.82
2023-05-13T17:37:17.851Z,14.75
2023-05-13T17:39:46.224Z,14.71
2023-05-13T17:42:14.570Z,14.67
2023-05-13T17:44:42.684Z,14.62
2023-05-13T17:47:10.892Z,14.60
2023-05-13T17:49:38.972Z,14.57
2023-05-13T17:52:07.283Z,14.51
2023-05-13T17:54:38.048Z,14.46
2023-05-13T17:57:06.934Z,14.40
2023-05-13T17:59:35.006Z,14.34
2023-05-13T18:02:03.137Z,14.28
2023-05-13T18:04:31.500Z,14.23
2023-05-13T18:06:59.617Z,14.19
2023-05-13T18:09:28.560Z,14.13
2023-05-13T18:11:58.846Z,14.07
2023-05-13T18:14:34.516Z,14.01
2023-05-13T18:17:03.056Z,13.96
2023-05-13T18:19:31.545Z,13.92
2023-05-13T18:21:59.733Z,13.88
2023-05-13T18:24:27.910Z,13.83
2023-05-13T18:26:56.119Z,13.80
2023-05-13T18:29:24.253Z,13.77
2023-05-13T18:31:52.846Z,13.72
2023-05-13T18:34:21.250Z,13.66
2023-05-13T18:36:52.028Z,13.59
2023-05-13T18:39:22.107Z,13.53
2023-05-13T18:41:50.726Z,13.50
2023-05-13T18:44:18.874Z,13.46
2023-05-13T18:46:47.094Z,13.46
2023-05-13T18:49:15.374Z,13.40
2023-05-13T18:51:45.338Z,13.36
2023-05-13T18:54:13.379Z,13.39
2023-05-13T18:56:42.232Z,13.43
2023-05-13T18:59:10.419Z,13.44
2023-05-13T19:01:38.571Z,13.46
2023-05-13T19:04:06.897Z,13.48
2023-05-13T19:06:38.091Z,13.49
2023-05-13T19:09:06.613Z,13.48
2023-05-13T19:11:34.525Z,13.45
2023-05-13T19:14:02.759Z,13.43
2023-05-13T19:16:30.838Z,13.39
2023-05-13T19:18:58.924Z,13.32
2023-05-13T19:21:27.294Z,13.26
2023-05-13T19:23:55.308Z,13.22
2023-05-13T19:26:23.441Z,13.18
2023-05-13T19:28:52.142Z,13.12
2023-05-13T19:31:22.286Z,13.07
2023-05-13T19:33:50.530Z,13.00
2023-05-13T19:36:18.620Z,12.94
2023-05-13T19:38:46.859Z,12.87
2023-05-13T19:41:15.979Z,12.81
2023-05-13T19:43:46.991Z,12.75
2023-05-13T19:46:15.266Z,12.70
2023-05-13T19:48:43.362Z,12.65
2023-05-13T19:51:11.422Z,12.60
2023-05-13T19:53:39.818Z,12.54
2023-05-13T19:56:07.874Z,12.51
2023-05-13T19:58:36.765Z,12.46
2023-05-13T20:01:04.933Z,12.42
2023-05-13T20:03:32.985Z,12.40
2023-05-13T20:06:01.977Z,12.38
2023-05-13T20:08:31.654Z,12.38
2023-05-13T20:10:59.994Z,12.37
2023-05-13T20:13:28.142Z,12.39
2023-05-13T20:15:56.112Z,12.43
2023-05-13T20:18:24.115Z,12.46
2023-05-13T20:20:53.845Z,12.50
2023-05-13T20:23:21.826Z,12.55
2023-05-13T20:25:49.923Z,12.57
2023-05-13T20:28:17.915Z,12.58
2023-05-13T20:30:46.157Z,12.56
2023-05-13T20:33:14.123Z,12.54
2023-05-13T20:35:42.359Z,12.52
2023-05-13T20:38:10.847Z,12.51
2023-05-13T20:40:39.149Z,12.50
2023-05-13T20:43:07.906Z,12.48
2023-05-13T20:45:39.892Z,12.47
2023-05-13T20:48:09.315Z,12.44
2023-05-13T20:50:37.755Z,12.42
2023-05-13T20:53:05.963Z,12.40
2023-05-13T20:55:33.859Z,12.36
2023-05-13T20:58:01.879Z,12.33
2023-05-13T21:00:31.531Z,12.29
2023-05-13T21:03:00.249Z,12.25
2023-05-13T21:05:28.737Z,12.18
2023-05-13T21:07:57.751Z,12.12
2023-05-13T21:10:26.161Z,12.09
2023-05-13T21:12:54.317Z,12.08
2023-05-13T21:15:22.596Z,12.08
2023-05-13T21:17:50.827Z,12.06
2023-05-13T21:20:19.161Z,12.04
2023-05-13T21:22:47.561Z,12.05
2023-05-13T21:25:15.984Z,12.05
2023-05-13T21:27:44.303Z,12.06
2023-05-13T21:30:13.730Z,12.05
2023-05-13T21:32:42.221Z,12.01
2023-05-13T21:35:10.741Z,11.95
2023-05-13T21:37:39.080Z,11.91
2023-05-13T21:40:08.543Z,11.87
2023-05-13T21:42:37.019Z,11.81
2023-05-13T21:45:05.880Z,11.74
2023-05-13T21:47:33.774Z,11.66
2023-05-13T21:50:01.941Z,11.58
2023-05-13T21:52:30.052Z,11.51
2023-05-13T21:54:58.114Z,11.43
2023-05-13T21:57:26.222Z,11.37
2023-05-13T21:59:54.305Z,11.28
2023-05-13T22:02:22.841Z,11.18
2023-05-13T22:04:51.191Z,11.07
2023-05-13T22:07:19.536Z,10.95
2023-05-13T22:09:49.749Z,10.85
2023-05-13T22:12:18.770Z,10.75
2023-05-13T22:14:46.966Z,10.66
2023-05-13T22:17:15.330Z,10.59
2023-05-13T22:19:43.547Z,10.53
2023-05-13T22:22:11.827Z,10.48
2023-05-13T22:24:39.862Z,10.44
2023-05-13T22:27:07.925Z,10.39
2023-05-13T22:29:36.152Z,10.36
2023-05-13T22:32:04.412Z,10.31
2023-05-13T22:34:32.904Z,10.24
2023-05-13T22:37:01.932Z,10.15
2023-05-13T22:39:30.088Z,10.04
2023-05-13T22:42:00.152Z,9.93
2023-05-13T22:44:28.474Z,9.82
2023-05-13T22:46:56.575Z,9.71
2023-05-13T22:49:24.753Z,9.63
2023-05-13T22:51:52.976Z,9.55
2023-05-13T22:54:21.123Z,9.48
2023-05-13T22:56:49.388Z,9.39
2023-05-13T22:59:17.557Z,9.30
2023-05-13T23:01:45.879Z,9.23
2023-05-13T23:04:14.004Z,9.16
2023-05-13T23:06:42.084Z,9.10
2023-05-13T23:09:10.542Z,9.08
2023-05-13T23:11:38.721Z,9.04
2023-05-13T23:14:06.911Z,9.01
2023-05-13T23:16:36.686Z,9.02
2023-05-13T23:19:04.847Z,9.04
2023-05-13T23:21:33.130Z,9.03
2023-05-13T23:24:01.204Z,8.99
2023-05-13T23:26:29.231Z,8.97
2023-05-13T23:28:57.348Z,8.94
2023-05-13T23:31:25.538Z,8.91
2023-05-13T23:33:53.759Z,8.86
2023-05-13T23:36:21.807Z,8.78
2023-05-13T23:38:50.937Z,8.70
2023-05-13T23:41:19.042Z,8.61
2023-05-13T23:43:47.287Z,8.49
2023-05-13T23:46:15.454Z,8.40
2023-05-13T23:48:43.837Z,8.32
2023-05-13T23:51:12.010Z,8.24
2023-05-13T23:53:40.243Z,8.15
2023-05-13T23:56:08.645Z,8.07
2023-05-13T23:58:37.215Z,8.03
